createdAt,value
2018-10-06T00:00:44.336Z,24.37
2018-10-06T00:03:12.720Z,25.47
2018-10-06T00:05:41.096Z,22.70
2018-10-06T00:08:09.490Z,23.67
2018-10-06T00:10:37.894Z,21.63
2018-10-06T00:13:06.361Z,22.67
2018-10-06T00:15:34.847Z,22.60
2018-10-06T00:18:03.308Z,20.53
2018-10-06T00:20:31.711Z,18.87
2018-10-06T00:23:01.066Z,18.33
2018-10-06T00:25:30.088Z,21.30
2018-10-06T00:27:58.474Z,17.50
2018-10-06T00:30:26.833Z,17.20
2018-10-06T00:32:55.216Z,17.57
2018-10-06T00:35:23.592Z,18.50
2018-10-06T00:37:51.986Z,16.27
2018-10-06T00:40:20.480Z,15.17
2018-10-06T00:42:48.871Z,20.33
2018-10-06T00:45:17.240Z,16.20
2018-10-06T00:47:45.705Z,15.23
2018-10-06T00:50:14.072Z,15.67
2018-10-06T00:52:42.472Z,15.90
2018-10-06T00:55:10.965Z,15.63
2018-10-06T00:57:39.344Z,16.00
2018-10-06T01:00:07.727Z,15.23
2018-10-06T01:02:36.107Z,15.73
2018-10-06T01:05:04.572Z,15.67
2018-10-06T01:07:33.019Z,12.57
2018-10-06T01:10:01.435Z,15.20
2018-10-06T01:12:29.845Z,17.37
2018-10-06T01:14:58.247Z,12.67
2018-10-06T01:17:26.621Z,13.00
2018-10-06T01:19:55.026Z,12.27
2018-10-06T01:22:23.566Z,14.50
2018-10-06T01:24:51.936Z,14.03
2018-10-06T01:27:20.315Z,13.67
2018-10-06T01:29:48.673Z,12.43
2018-10-06T01:32:17.153Z,13.10
2018-10-06T01:34:45.534Z,14.67
2018-10-06T01:37:13.911Z,17.27
2018-10-06T01:39:42.303Z,11.80
2018-10-06T01:42:10.683Z,12.30
2018-10-06T01:44:39.047Z,12.23
2018-10-06T01:47:08.014Z,11.83
2018-10-06T01:49:36.397Z,13.00
2018-10-06T01:52:04.786Z,10.70
2018-10-06T01:54:33.226Z,12.00
2018-10-06T01:57:01.596Z,10.30
2018-10-06T01:59:30.036Z,11.37
2018-10-06T02:01:58.436Z,11.27
2018-10-06T02:04:26.829Z,9.77
2018-10-06T02:06:56.245Z,10.07
2018-10-06T02:09:24.625Z,11.03
2018-10-06T02:11:53.669Z,11.47
2018-10-06T02:14:22.055Z,11.43
2018-10-06T02:16:50.807Z,11.83
2018-10-06T02:19:19.171Z,11.70
2018-10-06T02:21:47.616Z,9.50
2018-10-06T02:24:15.955Z,11.47
2018-10-06T02:26:44.343Z,9.97
2018-10-06T02:29:12.772Z,11.13
2018-10-06T02:31:41.104Z,8.77
2018-10-06T02:34:09.467Z,8.87
2018-10-06T02:36:37.881Z,10.27
2018-10-06T02:39:06.815Z,11.17
2018-10-06T02:41:35.200Z,9.97
2018-10-06T02:44:03.579Z,8.87
2018-10-06T02:46:31.936Z,9.77
2018-10-06T02:49:00.346Z,9.57
2018-10-06T02:51:28.730Z,9.97
2018-10-06T02:53:57.139Z,10.53
2018-10-06T02:56:25.520Z,9.20
2018-10-06T02:58:53.896Z,8.27
2018-10-06T03:01:27.620Z,9.97
2018-10-06T03:03:56.090Z,9.10
2018-10-06T03:06:24.443Z,11.73
2018-10-06T03:08:52.822Z,15.50
2018-10-06T03:11:21.232Z,19.00
2018-10-06T03:13:49.625Z,19.63
2018-10-06T03:16:18.031Z,21.50
2018-10-06T03:18:46.411Z,20.23
2018-10-06T03:21:14.813Z,19.23
2018-10-06T03:23:43.188Z,19.73
2018-10-06T03:26:11.578Z,19.80
2018-10-06T03:28:39.950Z,23.27
2018-10-06T03:31:08.368Z,21.30
2018-10-06T03:33:36.781Z,20.47
2018-10-06T03:36:05.830Z,22.47
2018-10-06T03:38:34.504Z,20.90
2018-10-06T03:41:02.894Z,18.37
2018-10-06T03:43:31.272Z,19.77
2018-10-06T03:45:59.758Z,19.17
2018-10-06T03:48:28.128Z,20.90
2018-10-06T03:50:56.560Z,19.23
2018-10-06T03:53:24.904Z,18.37
2018-10-06T03:55:53.302Z,18.53
2018-10-06T03:58:21.712Z,20.33
2018-10-06T04:00:50.099Z,16.37
2018-10-06T04:03:18.468Z,17.97
2018-10-06T04:05:46.907Z,17.00
2018-10-06T04:08:15.283Z,17.67
2018-10-06T04:10:43.671Z,16.27
2018-10-06T04:13:12.096Z,15.50
2018-10-06T04:15:40.495Z,15.77
2018-10-06T04:18:08.862Z,15.17
2018-10-06T04:20:37.259Z,17.77
2018-10-06T04:23:05.964Z,16.73
2018-10-06T04:25:34.323Z,16.63
2018-10-06T04:28:02.718Z,16.10
2018-10-06T04:30:31.128Z,15.60
2018-10-06T04:32:59.539Z,15.87
2018-10-06T04:35:27.930Z,14.93
2018-10-06T04:37:56.369Z,15.57
2018-10-06T04:40:24.743Z,15.77
2018-10-06T04:42:53.154Z,14.93
2018-10-06T04:45:21.569Z,16.57
2018-10-06T04:47:49.998Z,16.43
2018-10-06T04:50:18.379Z,14.57
2018-10-06T04:52:46.771Z,14.57
2018-10-06T04:55:15.169Z,13.77
2018-10-06T04:57:43.534Z,14.77
2018-10-06T05:00:11.927Z,14.10
2018-10-06T05:02:40.291Z,14.87
2018-10-06T05:05:08.663Z,14.60
2018-10-06T05:07:37.062Z,14.13
2018-10-06T05:10:05.520Z,14.63
2018-10-06T05:12:33.917Z,15.17
2018-10-06T05:15:02.317Z,11.83
2018-10-06T05:17:30.689Z,14.33
2018-10-06T05:19:59.068Z,13.30
2018-10-06T05:22:27.555Z,14.57
2018-10-06T05:24:55.948Z,13.00
2018-10-06T05:27:24.306Z,13.53
2018-10-06T05:29:52.712Z,11.13
2018-10-06T05:32:21.107Z,11.03
2018-10-06T05:34:49.491Z,12.73
2018-10-06T05:37:17.877Z,10.43
2018-10-06T05:39:46.264Z,11.40
2018-10-06T05:42:14.652Z,9.97
2018-10-06T05:44:43.043Z,10.30
2018-10-06T05:47:11.416Z,10.20
2018-10-06T05:49:39.787Z,10.30
2018-10-06T05:52:08.175Z,10.40
2018-10-06T05:54:36.576Z,9.33
2018-10-06T05:57:05.028Z,8.77
2018-10-06T05:59:33.432Z,11.03
2018-10-06T06:02:01.817Z,9.50
2018-10-06T06:04:30.308Z,9.30
2018-10-06T06:06:58.738Z,9.00
2018-10-06T06:09:27.116Z,9.40
2018-10-06T06:11:55.511Z,10.33
2018-10-06T06:14:23.864Z,10.67
2018-10-06T06:16:52.264Z,9.50
2018-10-06T06:19:20.623Z,8.97
2018-10-06T06:21:49.038Z,8.57
2018-10-06T06:24:17.411Z,9.47
2018-10-06T06:26:45.779Z,14.60
2018-10-06T06:29:14.174Z,8.47
2018-10-06T06:31:42.710Z,9.63
2018-10-06T06:34:11.306Z,10.23
2018-10-06T06:36:39.739Z,10.47
2018-10-06T06:39:08.916Z,20.97
2018-10-06T06:41:37.563Z,24.37
2018-10-06T06:44:06.227Z,28.73
2018-10-06T06:46:34.722Z,36.50
2018-10-06T06:49:03.231Z,42.70
2018-10-06T06:51:31.645Z,44.67
2018-10-06T06:53:59.995Z,42.63
2018-10-06T06:56:28.405Z,41.33
2018-10-06T06:58:56.839Z,43.50
2018-10-06T07:01:25.218Z,45.30
2018-10-06T07:03:53.622Z,47.77
2018-10-06T07:06:22.006Z,44.80
2018-10-06T07:08:50.410Z,102.40
2018-10-06T07:11:18.811Z,89.60
2018-10-06T07:13:47.259Z,116.60
2018-10-06T07:16:15.633Z,120.97
2018-10-06T07:18:44.069Z,106.10
2018-10-06T07:21:12.463Z,111.50
2018-10-06T07:23:40.855Z,106.23
2018-10-06T07:26:09.279Z,110.87
2018-10-06T07:28:37.684Z,121.87
2018-10-06T07:31:06.243Z,150.73
2018-10-06T07:33:34.727Z,152.37
2018-10-06T07:36:03.114Z,144.47
2018-10-06T07:38:31.591Z,131.27
2018-10-06T07:41:00.088Z,142.43
2018-10-06T07:43:28.512Z,127.23
2018-10-06T07:45:56.894Z,101.23
2018-10-06T07:48:25.291Z,107.17
2018-10-06T07:50:53.727Z,101.00
2018-10-06T07:53:22.134Z,97.73
2018-10-06T07:55:50.608Z,100.50
2018-10-06T07:58:19.078Z,87.80
2018-10-06T08:00:47.453Z,89.10
2018-10-06T08:03:15.859Z,86.10
2018-10-06T08:05:44.240Z,71.50
2018-10-06T08:08:12.607Z,89.80
2018-10-06T08:10:41.133Z,73.27
2018-10-06T08:13:09.570Z,87.70
2018-10-06T08:15:38.060Z,129.33
2018-10-06T08:18:06.665Z,122.83
2018-10-06T08:20:35.117Z,104.30
2018-10-06T08:23:03.547Z,98.93
2018-10-06T08:25:32.122Z,93.77
2018-10-06T08:28:00.541Z,81.67
2018-10-06T08:30:29.026Z,79.47
2018-10-06T08:32:57.439Z,81.63
2018-10-06T08:35:25.826Z,72.87
2018-10-06T08:37:54.244Z,79.93
2018-10-06T08:40:22.720Z,55.43
2018-10-06T08:42:51.168Z,36.50
2018-10-06T08:45:19.482Z,29.47
2018-10-06T08:47:47.906Z,39.53
2018-10-06T08:50:16.320Z,36.00
2018-10-06T08:52:44.835Z,35.03
2018-10-06T08:55:13.264Z,33.17
2018-10-06T08:57:41.732Z,37.50
2018-10-06T09:00:10.112Z,27.00
2018-10-06T09:02:38.515Z,26.60
2018-10-06T09:05:06.945Z,25.60
2018-10-06T09:07:35.328Z,20.20
2018-10-06T09:10:03.728Z,19.23
2018-10-06T09:12:32.203Z,33.13
2018-10-06T09:15:00.640Z,32.23
2018-10-06T09:17:29.019Z,25.50
2018-10-06T09:19:58.147Z,22.87
2018-10-06T09:22:26.556Z,20.70
2018-10-06T09:24:54.948Z,18.53
2018-10-06T09:27:23.415Z,18.87
2018-10-06T09:29:52.031Z,19.37
2018-10-06T09:32:20.455Z,19.67
2018-10-06T09:34:48.843Z,20.53
2018-10-06T09:37:17.392Z,24.17
2018-10-06T09:39:45.821Z,29.73
2018-10-06T09:42:14.781Z,28.27
2018-10-06T09:44:43.181Z,24.90
2018-10-06T09:47:11.563Z,28.27
2018-10-06T09:49:40.046Z,21.33
2018-10-06T09:52:08.436Z,19.27
2018-10-06T09:54:36.877Z,25.57
2018-10-06T09:57:05.265Z,19.23
2018-10-06T09:59:34.505Z,19.23
2018-10-06T10:02:08.897Z,19.17
2018-10-06T10:04:37.851Z,18.77
2018-10-06T10:07:06.434Z,32.93
2018-10-06T10:09:34.842Z,24.93
2018-10-06T10:12:03.278Z,27.17
2018-10-06T10:14:31.654Z,79.83
2018-10-06T10:17:00.183Z,33.90
2018-10-06T10:19:28.547Z,33.37
2018-10-06T10:21:57.037Z,27.37
2018-10-06T10:24:25.340Z,27.13
2018-10-06T10:26:53.764Z,22.70
2018-10-06T10:29:22.163Z,25.57
2018-10-06T10:31:50.556Z,28.43
2018-10-06T10:34:18.958Z,21.20
2018-10-06T10:36:47.374Z,20.20
2018-10-06T10:39:15.909Z,22.97
2018-10-06T10:41:44.331Z,20.63
2018-10-06T10:44:12.815Z,19.37
2018-10-06T10:46:41.460Z,21.30
2018-10-06T10:49:10.837Z,23.07
2018-10-06T10:51:39.246Z,117.30
2018-10-06T10:54:07.655Z,46.73
2018-10-06T10:56:36.095Z,29.93
2018-10-06T10:59:04.505Z,26.10
2018-10-06T11:01:32.891Z,22.30
2018-10-06T11:04:03.141Z,21.07
2018-10-06T11:06:31.603Z,23.47
2018-10-06T11:09:00.088Z,32.60
2018-10-06T11:11:28.504Z,32.53
2018-10-06T11:13:57.841Z,30.43
2018-10-06T11:16:26.259Z,28.63
2018-10-06T11:18:54.672Z,32.17
2018-10-06T11:21:23.096Z,33.77
2018-10-06T11:23:51.561Z,32.77
2018-10-06T11:26:20.063Z,28.23
2018-10-06T11:28:48.543Z,28.57
2018-10-06T11:31:17.309Z,30.17
2018-10-06T11:33:45.709Z,39.03
2018-10-06T11:36:14.195Z,31.47
2018-10-06T11:38:43.019Z,32.47
2018-10-06T11:41:11.457Z,24.73
2018-10-06T11:43:39.841Z,23.67
2018-10-06T11:46:08.337Z,23.73
2018-10-06T11:48:36.793Z,21.93
2018-10-06T11:51:05.214Z,19.43
2018-10-06T11:53:33.620Z,21.60
2018-10-06T11:56:02.126Z,17.03
2018-10-06T11:58:30.543Z,25.73
2018-10-06T12:00:58.979Z,41.03
2018-10-06T12:03:27.397Z,36.67
2018-10-06T12:05:56.013Z,39.37
2018-10-06T12:08:24.434Z,28.20
2018-10-06T12:10:52.855Z,25.50
2018-10-06T12:13:21.929Z,23.40
2018-10-06T12:15:50.421Z,19.70
2018-10-06T12:18:18.987Z,20.50
2018-10-06T12:20:47.400Z,13.07
2018-10-06T12:23:16.461Z,13.77
2018-10-06T12:25:44.922Z,13.27
2018-10-06T12:28:13.386Z,10.67
2018-10-06T12:30:41.797Z,14.87
2018-10-06T12:33:10.315Z,13.90
2018-10-06T12:35:38.829Z,15.57
2018-10-06T12:38:07.236Z,14.00
2018-10-06T12:40:35.755Z,12.23
2018-10-06T12:43:04.217Z,13.57
2018-10-06T12:45:32.643Z,10.97
2018-10-06T12:48:01.052Z,13.70
2018-10-06T12:50:29.562Z,14.17
2018-10-06T12:52:57.961Z,14.07
2018-10-06T12:55:26.403Z,11.47
2018-10-06T12:57:54.821Z,14.53
2018-10-06T13:00:23.228Z,12.23
2018-10-06T13:02:51.744Z,11.90
2018-10-06T13:05:20.167Z,10.37
2018-10-06T13:07:48.572Z,14.33
2018-10-06T13:10:17.007Z,18.27
2018-10-06T13:12:45.431Z,17.40
2018-10-06T13:15:13.827Z,17.57
2018-10-06T13:17:42.301Z,12.47
2018-10-06T13:20:10.748Z,12.17
2018-10-06T13:22:39.652Z,12.20
2018-10-06T13:25:08.640Z,11.17
2018-10-06T13:27:37.091Z,10.20
2018-10-06T13:30:05.499Z,8.73
2018-10-06T13:32:33.947Z,9.23
2018-10-06T13:35:02.337Z,17.97
2018-10-06T13:37:30.748Z,14.53
2018-10-06T13:39:59.248Z,13.00
2018-10-06T13:42:27.712Z,12.50
2018-10-06T13:44:56.143Z,13.87
2018-10-06T13:47:24.594Z,11.87
2018-10-06T13:49:53.453Z,12.40
2018-10-06T13:52:22.181Z,18.83
2018-10-06T13:54:50.584Z,12.50
2018-10-06T13:57:19.276Z,10.23
2018-10-06T13:59:47.806Z,10.33
2018-10-06T14:02:16.202Z,18.97
2018-10-06T14:04:44.706Z,7.37
2018-10-06T14:07:13.222Z,11.50
2018-10-06T14:09:41.764Z,9.63
2018-10-06T14:12:10.247Z,11.50
2018-10-06T14:14:38.639Z,8.70
2018-10-06T14:17:07.035Z,10.33
2018-10-06T14:19:35.597Z,12.00
2018-10-06T14:22:04.021Z,12.70
2018-10-06T14:24:32.423Z,16.27
2018-10-06T14:27:00.853Z,14.40
2018-10-06T14:29:29.254Z,8.07
2018-10-06T14:31:57.778Z,8.57
2018-10-06T14:34:26.195Z,13.53
2018-10-06T14:36:55.323Z,9.97
2018-10-06T14:39:23.811Z,9.97
2018-10-06T14:41:52.265Z,9.80
2018-10-06T14:44:20.976Z,13.43
2018-10-06T14:46:49.424Z,12.63
2018-10-06T14:49:17.953Z,19.40
2018-10-06T14:51:46.821Z,8.83
2018-10-06T14:54:15.508Z,9.53
2018-10-06T14:56:44.304Z,9.67
2018-10-06T14:59:12.847Z,11.50
2018-10-06T15:01:41.783Z,8.83
2018-10-06T15:04:10.202Z,9.07
2018-10-06T15:06:38.580Z,8.40
2018-10-06T15:09:08.545Z,9.20
2018-10-06T15:11:37.025Z,7.67
2018-10-06T15:14:05.953Z,6.60
2018-10-06T15:16:34.400Z,9.03
2018-10-06T15:19:02.799Z,11.37
2018-10-06T15:21:31.304Z,11.80
2018-10-06T15:23:59.677Z,9.93
2018-10-06T15:26:29.943Z,14.70
2018-10-06T15:29:03.236Z,12.53
2018-10-06T15:31:31.759Z,10.73
2018-10-06T15:34:00.296Z,14.93
2018-10-06T15:36:28.773Z,14.87
2018-10-06T15:38:57.266Z,25.10
2018-10-06T15:41:26.348Z,19.80
2018-10-06T15:43:54.796Z,18.17
2018-10-06T15:46:23.265Z,19.93
2018-10-06T15:48:51.695Z,23.60
2018-10-06T15:51:20.081Z,31.00
2018-10-06T15:53:48.603Z,25.27
2018-10-06T15:56:17.019Z,26.70
2018-10-06T15:58:45.422Z,25.40
2018-10-06T16:01:13.842Z,55.80
2018-10-06T16:03:42.453Z,43.90
2018-10-06T16:06:11.468Z,33.17
2018-10-06T16:08:39.981Z,23.87
2018-10-06T16:11:08.380Z,23.23
2018-10-06T16:13:36.845Z,21.07
2018-10-06T16:16:05.709Z,22.67
2018-10-06T16:18:34.159Z,16.80
2018-10-06T16:21:02.586Z,21.67
2018-10-06T16:23:32.177Z,16.63
2018-10-06T16:26:00.627Z,24.23
2018-10-06T16:28:29.357Z,17.23
2018-10-06T16:30:58.464Z,20.27
2018-10-06T16:33:27.127Z,25.57
2018-10-06T16:35:55.829Z,16.50
2018-10-06T16:38:24.229Z,22.80
2018-10-06T16:40:52.735Z,18.13
2018-10-06T16:43:21.324Z,18.00
2018-10-06T16:45:50.060Z,19.60
2018-10-06T16:48:18.648Z,18.57
2018-10-06T16:50:47.207Z,34.07
2018-10-06T16:53:15.596Z,35.97
2018-10-06T16:55:43.999Z,30.07
2018-10-06T16:58:12.573Z,28.00
2018-10-06T17:00:41.230Z,30.97
2018-10-06T17:03:09.848Z,32.07
2018-10-06T17:05:38.908Z,30.70
2018-10-06T17:08:07.315Z,22.47
2018-10-06T17:10:36.011Z,78.23
2018-10-06T17:13:04.589Z,77.27
2018-10-06T17:15:33.121Z,73.60
2018-10-06T17:18:02.316Z,50.27
2018-10-06T17:20:30.888Z,53.00
2018-10-06T17:22:59.329Z,64.83
2018-10-06T17:25:28.096Z,72.23
2018-10-06T17:27:56.491Z,57.17
2018-10-06T17:30:25.614Z,44.70
2018-10-06T17:32:54.088Z,44.90
2018-10-06T17:35:22.609Z,42.40
2018-10-06T17:37:51.564Z,46.67
2018-10-06T17:40:20.268Z,43.23
2018-10-06T17:42:48.893Z,44.43
2018-10-06T17:45:17.483Z,42.93
2018-10-06T17:47:45.954Z,38.27
2018-10-06T17:50:14.583Z,40.83
2018-10-06T17:52:43.083Z,39.03
2018-10-06T17:55:11.629Z,40.00
2018-10-06T17:57:40.324Z,33.47
2018-10-06T18:00:08.699Z,38.77
2018-10-06T18:02:37.310Z,32.53
2018-10-06T18:05:05.722Z,32.43
2018-10-06T18:07:34.158Z,28.73
2018-10-06T18:10:02.582Z,33.97
2018-10-06T18:12:31.179Z,28.70
2018-10-06T18:14:59.575Z,31.33
2018-10-06T18:17:28.037Z,28.60
2018-10-06T18:19:56.425Z,27.50
2018-10-06T18:22:24.818Z,27.40
2018-10-06T18:24:53.230Z,28.70
2018-10-06T18:27:21.831Z,26.80
2018-10-06T18:29:50.166Z,28.80
2018-10-06T18:32:18.591Z,28.97
2018-10-06T18:34:47.025Z,31.83
2018-10-06T18:37:15.492Z,31.17
2018-10-06T18:39:43.929Z,28.03
2018-10-06T18:42:12.475Z,27.27
2018-10-06T18:44:40.874Z,28.57
2018-10-06T18:47:09.364Z,28.80
2018-10-06T18:49:37.752Z,25.63
2018-10-06T18:52:06.170Z,25.47
2018-10-06T18:54:34.584Z,31.07
2018-10-06T18:57:03.083Z,62.07
2018-10-06T18:59:31.495Z,68.70
2018-10-06T19:01:59.971Z,79.00
2018-10-06T19:04:30.964Z,81.00
2018-10-06T19:06:59.399Z,69.80
2018-10-06T19:09:27.795Z,71.90
2018-10-06T19:11:56.197Z,61.00
2018-10-06T19:14:24.663Z,62.80
2018-10-06T19:16:53.153Z,75.93
2018-10-06T19:19:27.146Z,82.33
2018-10-06T19:22:00.465Z,75.77
2018-10-06T19:24:33.536Z,56.90
2018-10-06T19:27:04.361Z,58.57
2018-10-06T19:29:36.147Z,53.80
2018-10-06T19:32:04.567Z,53.30
2018-10-06T19:34:33.041Z,54.70
2018-10-06T19:37:01.528Z,47.77
2018-10-06T19:39:29.965Z,53.73
2018-10-06T19:41:58.406Z,44.80
2018-10-06T19:44:26.813Z,48.90
2018-10-06T19:46:55.467Z,43.53
2018-10-06T19:49:23.945Z,44.40
2018-10-06T19:51:52.342Z,45.47
2018-10-06T19:54:20.759Z,47.73
2018-10-06T19:56:49.152Z,43.93
2018-10-06T19:59:18.141Z,43.57
2018-10-06T20:01:46.546Z,42.63
2018-10-06T20:04:15.122Z,41.43
2018-10-06T20:06:43.552Z,42.40
2018-10-06T20:09:12.309Z,44.43
2018-10-06T20:11:40.832Z,45.73
2018-10-06T20:14:09.222Z,45.53
2018-10-06T20:16:37.629Z,40.53
2018-10-06T20:19:06.052Z,46.77
2018-10-06T20:21:34.604Z,40.90
2018-10-06T20:24:03.227Z,45.97
2018-10-06T20:26:31.829Z,47.63
2018-10-06T20:29:00.244Z,36.00
2018-10-06T20:31:28.662Z,38.97
2018-10-06T20:33:58.025Z,38.13
2018-10-06T20:36:26.420Z,42.07
2018-10-06T20:38:54.874Z,43.40
2018-10-06T20:41:23.386Z,48.07
2018-10-06T20:43:51.816Z,59.97
2018-10-06T20:46:20.272Z,65.43
2018-10-06T20:48:48.659Z,59.23
2018-10-06T20:51:17.267Z,54.03
2018-10-06T20:53:45.646Z,49.67
2018-10-06T20:56:14.081Z,37.20
2018-10-06T20:58:42.456Z,35.47
2018-10-06T21:01:10.860Z,33.93
2018-10-06T21:03:39.240Z,42.50
2018-10-06T21:06:07.622Z,32.70
2018-10-06T21:08:35.995Z,94.40
2018-10-06T21:11:04.465Z,130.03
2018-10-06T21:13:32.868Z,103.43
2018-10-06T21:16:01.355Z,74.80
2018-10-06T21:18:30.188Z,69.13
2018-10-06T21:20:59.127Z,59.73
2018-10-06T21:23:27.547Z,55.27
2018-10-06T21:25:55.949Z,53.07
2018-10-06T21:28:24.464Z,50.97
2018-10-06T21:30:52.947Z,52.40
2018-10-06T21:33:21.567Z,42.53
2018-10-06T21:35:50.090Z,43.87
2018-10-06T21:38:18.489Z,40.40
2018-10-06T21:40:46.894Z,39.73
2018-10-06T21:43:15.358Z,35.30
2018-10-06T21:45:43.739Z,35.70
2018-10-06T21:48:12.169Z,33.57
2018-10-06T21:50:40.696Z,30.93
2018-10-06T21:53:09.245Z,35.33
2018-10-06T21:55:37.684Z,82.87
2018-10-06T21:58:06.112Z,56.03
2018-10-06T22:00:34.722Z,53.57
2018-10-06T22:03:03.122Z,58.60
2018-10-06T22:05:31.515Z,60.77
2018-10-06T22:07:59.924Z,65.13
2018-10-06T22:10:28.356Z,68.27
2018-10-06T22:12:56.771Z,67.33
2018-10-06T22:15:25.156Z,64.03
2018-10-06T22:17:53.563Z,62.47
2018-10-06T22:20:22.383Z,61.43
2018-10-06T22:22:50.972Z,59.90
2018-10-06T22:25:19.413Z,57.97
2018-10-06T22:27:47.820Z,59.83
2018-10-06T22:30:16.220Z,60.33
2018-10-06T22:32:44.628Z,57.33
2018-10-06T22:35:13.064Z,63.10
2018-10-06T22:37:41.467Z,57.70
2018-10-06T22:40:09.873Z,59.17
2018-10-06T22:42:38.275Z,51.53
2018-10-06T22:45:06.863Z,56.87
2018-10-06T22:47:35.313Z,54.50
2018-10-06T22:50:03.790Z,64.03
2018-10-06T22:52:32.393Z,65.17
2018-10-06T22:55:00.856Z,68.73
2018-10-06T22:57:29.346Z,74.67
2018-10-06T22:59:57.744Z,74.10
2018-10-06T23:02:26.277Z,75.30
2018-10-06T23:04:54.692Z,71.13
2018-10-06T23:07:23.311Z,69.00
2018-10-06T23:09:51.723Z,67.43
2018-10-06T23:12:20.132Z,69.40
2018-10-06T23:14:48.535Z,72.33
2018-10-06T23:17:17.613Z,72.70
2018-10-06T23:19:46.126Z,68.50
2018-10-06T23:22:14.521Z,65.20
2018-10-06T23:24:42.957Z,65.23
2018-10-06T23:27:11.481Z,65.40
2018-10-06T23:29:39.919Z,66.17
2018-10-06T23:32:08.299Z,61.70
2018-10-06T23:34:36.747Z,61.87
2018-10-06T23:37:05.183Z,63.93
2018-10-06T23:39:33.603Z,59.60
2018-10-06T23:42:02.096Z,60.13
2018-10-06T23:44:30.471Z,56.43
2018-10-06T23:46:58.954Z,59.13
2018-10-06T23:49:27.586Z,73.20
2018-10-06T23:51:55.988Z,88.70
2018-10-06T23:54:24.380Z,86.80
2018-10-06T23:56:52.963Z,83.47
2018-10-06T23:59:21.518Z,84.63
